Time;durP1;ratioP1;P1;durP2;ratioP2;P2;SDS_P1;SDS_P2;PMS_P1;PMS_P2;Temp;Humidity;BMP_temperature;BMP_pressure;BME280_temperature;BME280_humidity;BME280_pressure;Samples;Min_cycle;Max_cycle;Signal;HPM_P1;HPM_P2
2021/10/08 00:00:07;;;;;;;;;;;;;;;9.17;100.00;103027.31;5069162;28;19925;-52
2021/10/08 00:02:33;;;;;;;;;;;;;;;9.17;100.00;103025.53;5075899;28;20324;-49
2021/10/08 00:05:00;;;;;;;;;;;;;;;9.05;100.00;103028.47;5108427;28;20379;-51
2021/10/08 00:07:27;;;;;;;;;;;;;;;9.05;100.00;103023.22;5073804;28;20002;-50
2021/10/08 00:09:53;;;;;;;;;;;;;;;8.96;100.00;103034.81;5073189;28;19931;-57
2021/10/08 00:12:20;;;;;;;;;;;;;;;8.92;100.00;103025.28;5073104;28;19974;-58
2021/10/08 00:14:47;;;;;;;;;;;;;;;9.10;100.00;103024.81;5108419;28;19974;-58
2021/10/08 00:17:13;;;;;;;;;;;;;;;9.06;100.00;103031.03;5075116;28;19925;-58
2021/10/08 00:19:40;;;;;;;;;;;;;;;9.02;100.00;103033.78;5071404;28;19928;-58
2021/10/08 00:22:06;;;;;;;;;;;;;;;9.01;100.00;103037.31;5106783;28;20403;-57
2021/10/08 00:24:33;;;;;;;;;;;;;;;9.00;100.00;103036.47;5075646;28;19924;-57
2021/10/08 00:27:00;;;;;;;;;;;;;;;8.92;100.00;103028.75;5091130;28;19928;-58
2021/10/08 00:29:26;;;;;;;;;;;;;;;8.82;100.00;103027.25;5104822;28;20073;-57
2021/10/08 00:31:53;;;;;;;;;;;;;;;8.87;100.00;103030.63;5073237;28;19987;-58
2021/10/08 00:34:20;;;;;;;;;;;;;;;8.87;100.00;103025.38;5075623;28;20027;-58
2021/10/08 00:36:46;;;;;;;;;;;;;;;8.74;100.00;103029.16;5107716;28;19924;-58
2021/10/08 00:39:13;;;;;;;;;;;;;;;8.82;100.00;103032.50;5075491;28;19924;-57
2021/10/08 00:41:40;;;;;;;;;;;;;;;8.92;100.00;103033.16;5075249;28;19925;-57
2021/10/08 00:44:06;;;;;;;;;;;;;;;8.77;100.00;103029.13;5090840;28;19925;-57
2021/10/08 00:46:33;;;;;;;;;;;;;;;8.91;100.00;103026.16;5074282;28;19924;-57
2021/10/08 00:49:00;;;;;;;;;;;;;;;8.76;100.00;103030.84;5075115;28;19925;-57
2021/10/08 00:51:27;;;;;;;;;;;;;;;8.84;100.00;103033.31;5073852;28;20280;-57
2021/10/08 00:53:54;;;;;;;;;;;;;;;8.81;100.00;103030.78;5104740;28;20387;-57
2021/10/08 00:56:20;;;;;;;;;;;;;;;8.77;100.00;103026.50;5074396;28;19924;-58
2021/10/08 00:58:47;;;;;;;;;;;;;;;8.75;100.00;103030.91;5070790;28;19932;-58
2021/10/08 01:01:15;;;;;;;;;;;;;;;8.79;100.00;103037.81;5104855;28;20387;-58
2021/10/08 01:03:42;;;;;;;;;;;;;;;8.80;100.00;103036.91;5106141;28;19928;-57
2021/10/08 01:06:09;;;;;;;;;;;;;;;8.72;100.00;103037.06;5072711;28;19924;-46
2021/10/08 01:08:36;;;;;;;;;;;;;;;8.76;100.00;103035.25;5105746;28;19924;-59
2021/10/08 01:11:03;;;;;;;;;;;;;;;8.77;100.00;103031.75;5074309;28;19925;-58
2021/10/08 01:13:29;;;;;;;;;;;;;;;8.89;100.00;103039.34;5101217;28;20379;-57
2021/10/08 01:15:56;;;;;;;;;;;;;;;8.82;100.00;103032.50;5072355;28;20299;-58
2021/10/08 01:18:26;;;;;;;;;;;;;;;8.95;100.00;103038.31;5105118;28;19930;-58
2021/10/08 01:20:53;;;;;;;;;;;;;;;8.84;100.00;103035.94;5104179;28;19955;-58
2021/10/08 01:23:20;;;;;;;;;;;;;;;8.92;100.00;103039.25;5106093;28;19950;-58
2021/10/08 01:25:48;;;;;;;;;;;;;;;8.85;100.00;103036.78;5074436;28;19925;-57
2021/10/08 01:28:15;;;;;;;;;;;;;;;8.86;100.00;103036.78;5074228;28;19924;-58
2021/10/08 01:30:41;;;;;;;;;;;;;;;8.80;100.00;103032.50;5074172;28;19924;-58
2021/10/08 01:33:08;;;;;;;;;;;;;;;8.72;100.00;103036.22;5071353;28;19951;-57
2021/10/08 01:35:34;;;;;;;;;;;;;;;8.68;100.00;103029.31;5070949;28;20073;-58
2021/10/08 01:38:01;;;;;;;;;;;;;;;8.67;100.00;103030.22;5073597;28;19974;-50
2021/10/08 01:40:29;;;;;;;;;;;;;;;8.56;100.00;103035.69;5073054;28;19929;-48
2021/10/08 01:42:55;;;;;;;;;;;;;;;8.58;100.00;103037.38;5070828;28;20276;-49
2021/10/08 01:45:22;;;;;;;;;;;;;;;8.57;100.00;103034.81;5071475;28;19928;-49
2021/10/08 01:47:48;;;;;;;;;;;;;;;8.53;100.00;103035.75;5074121;28;19928;-49
2021/10/08 01:50:15;;;;;;;;;;;;;;;8.50;100.00;103030.59;5074083;28;19977;-58
2021/10/08 01:52:41;;;;;;;;;;;;;;;8.51;100.00;103021.81;5073885;28;19997;-57
2021/10/08 01:55:08;;;;;;;;;;;;;;;8.54;100.00;103024.38;5073671;28;19978;-57
2021/10/08 01:57:35;;;;;;;;;;;;;;;8.49;100.00;103029.72;5069756;28;19924;-46
2021/10/08 02:00:02;;;;;;;;;;;;;;;8.50;100.00;103034.06;5071848;28;19925;-57
2021/10/08 02:02:29;;;;;;;;;;;;;;;8.45;100.00;103034.19;5073669;28;19931;-48
2021/10/08 02:04:56;;;;;;;;;;;;;;;8.54;100.00;103027.00;5073628;28;19931;-57
2021/10/08 02:07:22;;;;;;;;;;;;;;;8.58;100.00;103033.91;5072361;28;20364;-48
2021/10/08 02:09:49;;;;;;;;;;;;;;;8.51;100.00;103027.94;5072779;28;20375;-57
2021/10/08 02:12:16;;;;;;;;;;;;;;;8.40;100.00;103036.00;5072438;28;19931;-58
2021/10/08 02:14:42;;;;;;;;;;;;;;;8.49;100.00;103023.63;5073423;28;19978;-44
2021/10/08 02:17:09;;;;;;;;;;;;;;;8.59;100.00;103025.16;5073475;28;19931;-57
2021/10/08 02:19:36;;;;;;;;;;;;;;;8.56;100.00;103023.47;5073192;28;19924;-57
2021/10/08 02:22:02;;;;;;;;;;;;;;;8.37;100.00;103030.81;5073206;28;19951;-57
2021/10/08 02:24:29;;;;;;;;;;;;;;;8.37;100.00;103032.56;5105543;28;19924;-58
2021/10/08 02:26:56;;;;;;;;;;;;;;;8.29;100.00;103030.13;5073437;28;20398;-58
2021/10/08 02:29:23;;;;;;;;;;;;;;;8.26;100.00;103033.66;5073305;28;19926;-57
2021/10/08 02:31:50;;;;;;;;;;;;;;;8.23;100.00;103032.84;5073443;28;19924;-57
2021/10/08 02:34:16;;;;;;;;;;;;;;;8.22;100.00;103032.00;5070480;28;20392;-57
2021/10/08 02:36:43;;;;;;;;;;;;;;;8.38;100.00;103021.19;5069239;28;20824;-57
2021/10/08 02:39:10;;;;;;;;;;;;;;;8.20;100.00;103030.31;5072962;28;19924;-57
2021/10/08 02:41:36;;;;;;;;;;;;;;;8.27;100.00;103026.66;5072101;28;19924;-45
2021/10/08 02:44:04;;;;;;;;;;;;;;;8.32;100.00;103027.44;5069302;28;19953;-47
2021/10/08 02:46:30;;;;;;;;;;;;;;;8.25;100.00;103031.09;5071735;28;20287;-58
2021/10/08 02:48:57;;;;;;;;;;;;;;;8.20;100.00;103033.78;5072836;28;19929;-57
2021/10/08 02:51:24;;;;;;;;;;;;;;;8.10;100.00;103027.00;5072734;28;19924;-57
2021/10/08 02:53:51;;;;;;;;;;;;;;;8.09;100.00;103035.75;5071637;28;19939;-57
2021/10/08 02:56:18;;;;;;;;;;;;;;;8.22;100.00;103028.50;5069668;28;19928;-57
2021/10/08 02:58:45;;;;;;;;;;;;;;;8.20;100.00;103030.31;5069205;28;19974;-57
2021/10/08 03:01:12;;;;;;;;;;;;;;;8.10;100.00;103027.84;5088273;28;19925;-48
2021/10/08 03:03:38;;;;;;;;;;;;;;;8.06;100.00;103031.44;5072800;28;19928;-45
2021/10/08 03:06:05;;;;;;;;;;;;;;;8.03;100.00;103035.88;5072740;28;20431;-46
2021/10/08 03:08:32;;;;;;;;;;;;;;;8.03;100.00;103034.13;5072667;28;20379;-46
2021/10/08 03:10:59;;;;;;;;;;;;;;;8.01;100.00;103041.13;5072641;28;21301;-48
2021/10/08 03:13:25;;;;;;;;;;;;;;;8.03;100.00;103041.09;5069902;28;20448;-46
2021/10/08 03:15:52;;;;;;;;;;;;;;;8.07;100.00;103032.28;5069575;28;20010;-50
2021/10/08 03:18:19;;;;;;;;;;;;;;;8.11;100.00;103032.22;5070899;28;19924;-48
2021/10/08 03:20:46;;;;;;;;;;;;;;;8.04;100.00;103037.59;5072907;28;20398;-51
2021/10/08 03:23:13;;;;;;;;;;;;;;;8.11;100.00;103037.47;5072639;28;19978;-46
2021/10/08 03:25:40;;;;;;;;;;;;;;;8.04;100.00;103037.59;5072376;28;19931;-46
2021/10/08 03:28:06;;;;;;;;;;;;;;;8.04;100.00;103034.97;5087876;28;19924;-45
2021/10/08 03:30:33;;;;;;;;;;;;;;;8.01;100.00;103037.66;5071146;28;19974;-49
2021/10/08 03:32:59;;;;;;;;;;;;;;;7.97;100.00;103036.00;5072805;28;19928;-50
2021/10/08 03:35:26;;;;;;;;;;;;;;;7.95;100.00;103034.25;5105904;28;19931;-44
2021/10/08 03:37:57;;;;;;;;;;;;;;;7.87;100.00;103036.16;5076554;28;19925;-46
2021/10/08 03:40:29;;;;;;;;;;;;;;;7.84;100.00;103041.47;5076506;28;19956;-58
2021/10/08 03:42:58;;;;;;;;;;;;;;;7.76;100.00;103038.13;5076444;28;19928;-58
2021/10/08 03:45:30;;;;;;;;;;;;;;;7.77;100.00;103037.22;5076468;28;19935;-57
2021/10/08 03:48:06;;;;;;;;;;;;;;;7.77;100.00;103029.34;5107260;28;19932;-57
2021/10/08 03:50:33;;;;;;;;;;;;;;;7.73;100.00;103033.81;5106621;28;19951;-57
2021/10/08 03:52:59;;;;;;;;;;;;;;;7.69;100.00;103031.25;5074520;28;19939;-46
2021/10/08 03:55:26;;;;;;;;;;;;;;;7.78;100.00;103031.09;5105226;28;19974;-49
2021/10/08 03:57:53;;;;;;;;;;;;;;;7.78;100.00;103037.22;5108357;28;19924;-49
2021/10/08 04:00:19;;;;;;;;;;;;;;;7.73;100.00;103035.53;5075985;28;19931;-46
2021/10/08 04:02:46;;;;;;;;;;;;;;;7.76;100.00;103032.91;5074716;28;19993;-48
2021/10/08 04:05:12;;;;;;;;;;;;;;;7.73;100.00;103036.44;5105622;28;19928;-47
2021/10/08 04:07:39;;;;;;;;;;;;;;;7.71;100.00;103035.56;5075000;28;20359;-49
2021/10/08 04:10:06;;;;;;;;;;;;;;;7.64;100.00;103031.34;5075775;28;19925;-49
2021/10/08 04:12:32;;;;;;;;;;;;;;;7.67;100.00;103039.16;5075432;28;19978;-48
2021/10/08 04:14:59;;;;;;;;;;;;;;;7.65;100.00;103034.81;5072255;28;19989;-57
2021/10/08 04:17:25;;;;;;;;;;;;;;;7.63;100.00;103041.84;5073666;28;19925;-57
2021/10/08 04:19:52;;;;;;;;;;;;;;;7.50;100.00;103038.56;5108129;28;19978;-57
2021/10/08 04:22:19;;;;;;;;;;;;;;;7.54;100.00;103041.13;5075935;28;19928;-58
2021/10/08 04:24:45;;;;;;;;;;;;;;;7.61;100.00;103047.13;5107880;28;19924;-58
2021/10/08 04:27:12;;;;;;;;;;;;;;;7.54;100.00;103048.09;5071458;28;19924;-57
2021/10/08 04:29:39;;;;;;;;;;;;;;;7.52;100.00;103049.91;5070951;28;19929;-57
2021/10/08 04:32:05;;;;;;;;;;;;;;;7.49;100.00;103045.56;5075289;28;19931;-57
2021/10/08 04:34:32;;;;;;;;;;;;;;;7.46;100.00;103053.50;5075324;28;20441;-57
2021/10/08 04:36:58;;;;;;;;;;;;;;;7.55;100.00;103055.97;5075243;28;19974;-58
2021/10/08 04:39:25;;;;;;;;;;;;;;;7.53;100.00;103049.88;5074034;28;19924;-57
2021/10/08 04:41:52;;;;;;;;;;;;;;;7.63;100.00;103062.81;5075283;28;19929;-57
2021/10/08 04:44:18;;;;;;;;;;;;;;;7.56;100.00;103060.28;5073795;28;19933;-56
2021/10/08 04:46:45;;;;;;;;;;;;;;;7.48;100.00;103064.78;5072495;28;19924;-57
2021/10/08 04:49:12;;;;;;;;;;;;;;;7.27;100.00;103059.00;5071457;28;19935;-58
2021/10/08 04:51:38;;;;;;;;;;;;;;;7.34;100.00;103066.78;5073947;28;19929;-58
2021/10/08 04:54:05;;;;;;;;;;;;;;;7.23;100.00;103070.44;5090222;28;20013;-57
2021/10/08 04:56:33;;;;;;;;;;;;;;;7.34;100.00;103072.88;5074430;28;19971;-46
2021/10/08 04:59:00;;;;;;;;;;;;;;;7.30;100.00;103071.19;5074691;28;19928;-49
2021/10/08 05:01:27;;;;;;;;;;;;;;;7.32;100.00;103073.78;5074956;28;19931;-47
2021/10/08 05:03:54;;;;;;;;;;;;;;;7.28;100.00;103073.84;5107128;28;19931;-48
2021/10/08 05:06:21;;;;;;;;;;;;;;;7.31;100.00;103070.31;5107586;28;19928;-47
2021/10/08 05:08:47;;;;;;;;;;;;;;;7.22;100.00;103076.53;5074758;28;19929;-46
2021/10/08 05:11:14;;;;;;;;;;;;;;;7.28;100.00;103079.06;5071570;28;20363;-59
2021/10/08 05:13:41;;;;;;;;;;;;;;;7.26;100.00;103074.75;5072217;28;20041;-47
2021/10/08 05:16:07;;;;;;;;;;;;;;;7.26;100.00;103085.22;5074684;28;19977;-48
2021/10/08 05:18:34;;;;;;;;;;;;;;;7.37;100.00;103071.97;5106874;28;19925;-47
2021/10/08 05:21:00;;;;;;;;;;;;;;;7.35;100.00;103078.97;5074433;28;19931;-44
2021/10/08 05:23:27;;;;;;;;;;;;;;;7.38;100.00;103078.94;5074554;28;19925;-50
2021/10/08 05:25:54;;;;;;;;;;;;;;;7.28;100.00;103088.69;5089905;28;19967;-46
2021/10/08 05:28:20;;;;;;;;;;;;;;;7.31;100.00;103086.03;5073309;28;19928;-47
2021/10/08 05:30:47;;;;;;;;;;;;;;;7.33;100.00;103075.53;5070025;28;19928;-48
2021/10/08 05:33:14;;;;;;;;;;;;;;;7.32;100.00;103079.03;5073837;28;20399;-45
2021/10/08 05:35:40;;;;;;;;;;;;;;;7.27;100.00;103086.97;5073998;28;19970;-47
2021/10/08 05:38:07;;;;;;;;;;;;;;;7.30;100.00;103086.03;5074339;28;19924;-50
2021/10/08 05:40:33;;;;;;;;;;;;;;;7.19;100.00;103088.81;5073380;28;19979;-49
2021/10/08 05:43:01;;;;;;;;;;;;;;;7.29;100.00;103090.41;5072432;28;19932;-44
2021/10/08 05:45:28;;;;;;;;;;;;;;;7.26;100.00;103091.31;5073970;28;19924;-44
2021/10/08 05:47:54;;;;;;;;;;;;;;;7.32;100.00;103085.13;5072790;28;19924;-49
2021/10/08 05:50:21;;;;;;;;;;;;;;;7.28;100.00;103086.94;5070326;28;20256;-49
2021/10/08 05:52:47;;;;;;;;;;;;;;;7.25;100.00;103091.34;5070878;28;19931;-46
2021/10/08 05:55:14;;;;;;;;;;;;;;;7.25;100.00;103091.34;5073827;28;19925;-48
2021/10/08 05:57:41;;;;;;;;;;;;;;;7.24;100.00;103097.44;5106099;28;19928;-46
2021/10/08 06:00:08;;;;;;;;;;;;;;;7.06;100.00;103099.47;5073479;28;19925;-50
2021/10/08 06:02:34;;;;;;;;;;;;;;;7.09;100.00;103106.41;5073606;28;20292;-50
2021/10/08 06:05:01;;;;;;;;;;;;;;;6.94;100.00;103094.41;5072359;28;19924;-46
2021/10/08 06:07:28;;;;;;;;;;;;;;;6.91;100.00;103104.91;5073714;28;19950;-50
2021/10/08 06:09:54;;;;;;;;;;;;;;;6.86;100.00;103110.22;5072472;28;20302;-50
2021/10/08 06:12:21;;;;;;;;;;;;;;;6.87;100.00;103103.22;5069399;28;19928;-50
2021/10/08 06:14:48;;;;;;;;;;;;;;;6.83;100.00;103112.00;5071987;28;19924;-57
2021/10/08 06:17:14;;;;;;;;;;;;;;;6.91;100.00;103108.41;5073391;28;20010;-58
2021/10/08 06:19:41;;;;;;;;;;;;;;;6.96;100.00;103112.72;5073299;28;19932;-57
2021/10/08 06:22:08;;;;;;;;;;;;;;;6.87;100.00;103116.28;5073323;28;20326;-58
2021/10/08 06:24:34;;;;;;;;;;;;;;;6.90;100.00;103122.38;5073294;28;20299;-58
2021/10/08 06:27:01;;;;;;;;;;;;;;;6.82;100.00;103124.22;5073151;28;20387;-59
2021/10/08 06:29:28;;;;;;;;;;;;;;;6.83;100.00;103120.72;5073184;28;19925;-55
2021/10/08 06:31:54;;;;;;;;;;;;;;;6.79;100.00;103119.03;5086284;28;19929;-59
2021/10/08 06:34:21;;;;;;;;;;;;;;;6.93;100.00;103124.94;5070163;28;19933;-57
2021/10/08 06:36:48;;;;;;;;;;;;;;;7.01;100.00;103124.84;5105166;28;19939;-50
2021/10/08 06:39:16;;;;;;;;;;;;;;;6.98;100.00;103124.00;5104343;28;20205;-47
2021/10/08 06:41:43;;;;;;;;;;;;;;;6.98;100.00;103129.22;5069878;28;19974;-48
2021/10/08 06:44:09;;;;;;;;;;;;;;;6.98;100.00;103121.38;5069227;28;19928;-57
2021/10/08 06:46:36;;;;;;;;;;;;;;;6.99;100.00;103123.13;5071141;28;19928;-58
2021/10/08 06:49:03;;;;;;;;;;;;;;;7.07;100.00;103126.50;5072920;28;19928;-58
2021/10/08 06:51:29;;;;;;;;;;;;;;;7.15;100.00;103124.63;5072821;28;19928;-58
2021/10/08 06:53:56;;;;;;;;;;;;;;;7.17;100.00;103129.84;5072840;28;19951;-57
2021/10/08 06:56:23;;;;;;;;;;;;;;;7.13;100.00;103130.78;5071552;28;19924;-57
2021/10/08 06:58:49;;;;;;;;;;;;;;;7.16;100.00;103131.59;5105171;28;20051;-58
2021/10/08 07:01:16;;;;;;;;;;;;;;;7.12;100.00;103127.31;5071442;28;19925;-58
2021/10/08 07:03:43;;;;;;;;;;;;;;;7.17;100.00;103135.06;5070343;28;19925;-58
2021/10/08 07:06:09;;;;;;;;;;;;;;;7.20;100.00;103135.91;5070872;28;20367;-58
2021/10/08 07:08:36;;;;;;;;;;;;;;;7.11;100.00;103133.41;5072379;28;19931;-58
2021/10/08 07:11:03;;;;;;;;;;;;;;;7.12;100.00;103135.16;5071710;28;19928;-58
2021/10/08 07:13:29;;;;;;;;;;;;;;;7.21;100.00;103132.41;5104978;28;20444;-58
2021/10/08 07:15:58;;;;;;;;;;;;;;;7.27;100.00;103145.41;5072509;28;19986;-58
2021/10/08 07:18:43;;;;;;;;;;;;;;;7.33;100.00;103144.44;5072653;28;19930;-45
2021/10/08 07:21:10;;;;;;;;;;;;;;;7.39;100.00;103148.72;5072848;28;20267;-57
2021/10/08 07:23:40;;;;;;;;;;;;;;;7.41;100.00;103152.19;5104875;28;20026;-46
2021/10/08 07:26:11;;;;;;;;;;;;;;;7.44;100.00;103158.25;5100056;28;19943;-58
2021/10/08 07:28:38;;;;;;;;;;;;;;;7.58;100.00;103151.91;5068806;28;19924;-46
2021/10/08 07:31:07;;;;;;;;;;;;;;;7.49;100.00;103150.31;5071547;28;19928;-45
2021/10/08 07:33:38;;;;;;;;;;;;;;;7.54;100.00;103147.63;5069727;28;20421;-47
2021/10/08 07:36:05;;;;;;;;;;;;;;;7.67;100.00;103157.00;5103539;28;19967;-46
2021/10/08 07:38:31;;;;;;;;;;;;;;;7.85;100.00;103160.22;5072582;28;19924;-44
2021/10/08 07:40:58;;;;;;;;;;;;;;;7.91;100.00;103161.00;5071275;28;19925;-45
2021/10/08 07:43:25;;;;;;;;;;;;;;;8.00;100.00;103161.72;5104856;28;19947;-48
2021/10/08 07:45:51;;;;;;;;;;;;;;;7.97;100.00;103164.41;5104668;28;20015;-45
2021/10/08 07:48:18;;;;;;;;;;;;;;;7.84;100.00;103159.38;5104640;28;19955;-46
2021/10/08 07:50:45;;;;;;;;;;;;;;;7.87;100.00;103158.47;5072613;28;20269;-44
2021/10/08 07:53:12;;;;;;;;;;;;;;;8.04;100.00;103164.25;5072246;28;20287;-46
2021/10/08 07:55:38;;;;;;;;;;;;;;;8.04;100.00;103159.00;5104185;28;19928;-46
2021/10/08 07:58:05;;;;;;;;;;;;;;;8.17;100.00;103158.81;5069359;28;19925;-45
2021/10/08 08:00:31;;;;;;;;;;;;;;;8.20;100.00;103162.22;5069730;28;20456;-50
2021/10/08 08:02:58;;;;;;;;;;;;;;;8.21;100.00;103166.59;5071667;28;19946;-49
2021/10/08 08:05:26;;;;;;;;;;;;;;;8.29;100.00;103158.59;5071924;28;19928;-50
2021/10/08 08:07:52;;;;;;;;;;;;;;;8.38;100.00;103163.63;5071351;28;19924;-48
2021/10/08 08:10:19;;;;;;;;;;;;;;;8.24;100.00;103170.91;5068937;28;20426;-49
2021/10/08 08:12:45;;;;;;;;;;;;;;;8.06;100.00;103161.63;5068911;28;19928;-46
2021/10/08 08:15:12;;;;;;;;;;;;;;;8.29;100.00;103163.84;5072073;28;20015;-46
2021/10/08 08:17:39;;;;;;;;;;;;;;;8.41;100.00;103167.97;5072215;28;20473;-50
2021/10/08 08:20:06;;;;;;;;;;;;;;;8.47;100.00;103170.50;5072020;28;19931;-51
2021/10/08 08:22:33;;;;;;;;;;;;;;;8.57;100.00;103171.19;5071672;28;19928;-50
2021/10/08 08:24:59;;;;;;;;;;;;;;;8.52;100.00;103165.16;5072820;28;19970;-50
2021/10/08 08:27:26;;;;;;;;;;;;;;;8.58;100.00;103173.78;5075571;28;20395;-52
2021/10/08 08:29:52;;;;;;;;;;;;;;;8.71;100.00;103170.91;5075506;28;19925;-49
2021/10/08 08:32:19;;;;;;;;;;;;;;;8.82;100.00;103166.31;5075235;28;19931;-49
2021/10/08 08:34:46;;;;;;;;;;;;;;;8.84;99.75;103166.28;5074911;28;19977;-50
2021/10/08 08:37:12;;;;;;;;;;;;;;;8.90;99.69;103166.16;5107668;28;19931;-48
2021/10/08 08:39:40;;;;;;;;;;;;;;;8.95;100.00;103170.41;5074850;28;19924;-47
2021/10/08 08:42:09;;;;;;;;;;;;;;;9.12;100.00;103177.03;5071382;28;19963;-48
2021/10/08 08:44:36;;;;;;;;;;;;;;;9.16;100.00;103169.97;5073164;28;19925;-48
2021/10/08 08:47:02;;;;;;;;;;;;;;;9.16;99.95;103172.59;5107375;28;19932;-47
2021/10/08 08:49:29;;;;;;;;;;;;;;;9.35;99.08;103166.03;5075175;28;20288;-48
2021/10/08 08:51:56;;;;;;;;;;;;;;;9.48;98.13;103164.84;5107017;28;20189;-49
2021/10/08 08:54:23;;;;;;;;;;;;;;;9.51;97.35;103166.53;5072348;28;19924;-47
2021/10/08 08:56:49;;;;;;;;;;;;;;;9.54;96.17;103169.09;5073200;28;19924;-49
2021/10/08 08:59:16;;;;;;;;;;;;;;;9.58;98.06;103164.63;5073698;28;19925;-51
2021/10/08 09:02:02;;;;;;;;;;;;;;;9.65;97.21;103166.19;5073504;28;19925;-51
2021/10/08 09:04:30;;;;;;;;;;;;;;;9.63;97.34;103166.25;5074029;28;19928;-45
2021/10/08 09:06:57;;;;;;;;;;;;;;;9.73;97.80;103166.88;5072641;28;19935;-57
2021/10/08 09:09:24;;;;;;;;;;;;;;;9.79;98.01;103156.22;5103869;28;19963;-57
2021/10/08 09:11:51;;;;;;;;;;;;;;;9.90;98.38;103153.31;5105574;28;19924;-57
2021/10/08 09:14:19;;;;;;;;;;;;;;;10.11;96.71;103153.66;5107086;28;19974;-58
2021/10/08 09:17:04;;;;;;;;;;;;;;;10.31;97.71;103153.16;5074537;28;19925;-57
2021/10/08 09:19:44;;;;;;;;;;;;;;;10.27;96.84;103160.25;5074498;28;19943;-57
2021/10/08 09:22:11;;;;;;;;;;;;;;;10.48;95.10;103157.97;5106653;28;20417;-58
2021/10/08 09:24:37;;;;;;;;;;;;;;;10.61;93.71;103161.13;5107029;28;20030;-57
2021/10/08 09:27:10;;;;;;;;;;;;;;;10.70;96.00;103166.09;5070680;28;19932;-48
2021/10/08 09:29:37;;;;;;;;;;;;;;;10.78;95.74;103165.88;5103586;28;19928;-48
2021/10/08 09:32:04;;;;;;;;;;;;;;;10.97;95.19;103161.78;5074276;28;19928;-47
2021/10/08 09:34:31;;;;;;;;;;;;;;;10.95;94.10;103163.63;5073264;28;19928;-49
2021/10/08 09:37:03;;;;;;;;;;;;;;;11.27;93.91;103158.28;5074315;28;19925;-58
2021/10/08 09:39:32;;;;;;;;;;;;;;;11.26;92.08;103162.69;5074181;28;19928;-58
2021/10/08 09:42:03;;;;;;;;;;;;;;;11.38;92.64;103165.84;5073804;28;19928;-58
2021/10/08 09:44:30;;;;;;;;;;;;;;;11.46;92.82;103166.47;5102738;28;21037;-58
2021/10/08 09:47:07;;;;;;;;;;;;;;;11.65;91.33;103158.81;5104903;28;20376;-58
2021/10/08 09:49:34;;;;;;;;;;;;;;;11.72;91.03;103162.13;5071989;28;19928;-58
2021/10/08 09:52:17;;;;;;;;;;;;;;;11.75;91.00;103164.66;5073317;28;19929;-57
2021/10/08 09:54:50;;;;;;;;;;;;;;;11.77;91.19;103163.69;5073577;28;19928;-57
2021/10/08 09:57:18;;;;;;;;;;;;;;;11.80;91.87;103168.00;5104346;28;19998;-58
2021/10/08 09:59:46;;;;;;;;;;;;;;;12.10;90.42;103166.13;5070729;28;20292;-58
2021/10/08 10:02:13;;;;;;;;;;;;;;;12.31;90.97;103167.16;5072633;28;19974;-48
2021/10/08 10:04:46;;;;;;;;;;;;;;;12.43;88.54;103164.97;5106170;28;19928;-48
2021/10/08 10:07:13;;;;;;;;;;;;;;;12.61;87.51;103161.69;5073770;28;19925;-58
2021/10/08 10:09:40;;;;;;;;;;;;;;;12.74;87.92;103159.44;5073695;28;19978;-48
2021/10/08 10:12:27;;;;;;;;;;;;;;;12.92;87.01;103168.44;5073642;28;19974;-49
2021/10/08 10:14:54;;;;;;;;;;;;;;;12.84;87.55;103165.22;5073400;28;19974;-46
2021/10/08 10:17:20;;;;;;;;;;;;;;;13.12;84.85;103169.47;5073522;28;20360;-50
2021/10/08 10:19:47;;;;;;;;;;;;;;;13.36;84.33;103159.69;5072653;28;19924;-51
2021/10/08 10:22:15;;;;;;;;;;;;;;;13.64;84.18;103164.72;5102930;28;20344;-50
2021/10/08 10:24:42;;;;;;;;;;;;;;;14.15;84.26;103167.00;5071635;28;19928;-50
2021/10/08 10:27:10;;;;;;;;;;;;;;;14.32;82.59;103163.63;5105565;28;19924;-51
2021/10/08 10:29:37;;;;;;;;;;;;;;;14.69;78.98;103162.84;5069973;28;19932;-49
2021/10/08 10:32:05;;;;;;;;;;;;;;;14.97;79.65;103156.28;5070841;28;20425;-51
2021/10/08 10:34:33;;;;;;;;;;;;;;;14.96;77.69;103157.22;5105279;28;19932;-48
2021/10/08 10:36:59;;;;;;;;;;;;;;;15.01;77.30;103151.69;5103831;28;19928;-47
2021/10/08 10:39:26;;;;;;;;;;;;;;;15.47;76.64;103152.09;5068599;28;19924;-50
2021/10/08 10:42:02;;;;;;;;;;;;;;;15.45;77.45;103150.50;5071991;28;19924;-51
2021/10/08 10:44:33;;;;;;;;;;;;;;;15.72;75.68;103157.06;5072779;28;19924;-51
2021/10/08 10:47:12;;;;;;;;;;;;;;;16.16;75.33;103153.06;5069495;28;19929;-50
2021/10/08 10:49:45;;;;;;;;;;;;;;;16.63;73.40;103147.97;5071662;28;19939;-51
2021/10/08 10:52:13;;;;;;;;;;;;;;;17.22;71.00;103154.44;5103577;28;19932;-49
2021/10/08 10:54:52;;;;;;;;;;;;;;;17.15;69.35;103149.53;5088404;28;19925;-48
2021/10/08 10:57:18;;;;;;;;;;;;;;;17.69;68.91;103149.09;5073035;28;19928;-52
2021/10/08 10:59:45;;;;;;;;;;;;;;;17.79;68.62;103138.75;5072822;28;19955;-52
2021/10/08 11:02:12;;;;;;;;;;;;;;;18.12;67.45;103137.69;5072988;28;20346;-49
2021/10/08 11:04:40;;;;;;;;;;;;;;;18.30;65.38;103138.38;5071187;28;20030;-47
2021/10/08 11:07:10;;;;;;;;;;;;;;;18.65;64.72;103130.84;5070268;28;19924;-51
2021/10/08 11:09:37;;;;;;;;;;;;;;;18.51;64.06;103136.19;5072360;28;20379;-47
2021/10/08 11:12:22;;;;;;;;;;;;;;;18.94;61.86;103127.28;5072864;28;19947;-48
2021/10/08 11:14:49;;;;;;;;;;;;;;;19.15;61.67;103122.34;5072598;28;19925;-48
2021/10/08 11:17:36;;;;;;;;;;;;;;;19.63;61.96;103121.84;5072461;28;19924;-46
2021/10/08 11:20:03;;;;;;;;;;;;;;;19.75;61.13;103111.16;5072467;28;19932;-48
2021/10/08 11:22:42;;;;;;;;;;;;;;;19.92;60.06;103117.22;5071269;28;19933;-50
2021/10/08 11:25:10;;;;;;;;;;;;;;;19.90;59.01;103117.28;5070027;28;19948;-47
2021/10/08 11:27:37;;;;;;;;;;;;;;;19.85;57.47;103116.78;5071530;28;19925;-46
2021/10/08 11:30:04;;;;;;;;;;;;;;;20.57;57.72;103109.94;5072461;28;19928;-46
2021/10/08 11:32:31;;;;;;;;;;;;;;;20.85;56.82;103108.00;5072784;28;19924;-47
2021/10/08 11:34:59;;;;;;;;;;;;;;;21.06;55.12;103111.72;5104031;28;20019;-51
2021/10/08 11:37:28;;;;;;;;;;;;;;;21.19;54.50;103106.31;5071990;28;20383;-50
2021/10/08 11:39:55;;;;;;;;;;;;;;;21.39;54.07;103101.28;5071747;28;19948;-50
2021/10/08 11:42:24;;;;;;;;;;;;;;;21.69;53.31;103086.53;5068947;28;20063;-52
2021/10/08 11:44:59;;;;;;;;;;;;;;;22.05;53.14;103098.03;5100866;28;19928;-51
2021/10/08 11:50:06;;;;;;;;;;;;;;;21.71;52.84;103080.09;5071197;28;19974;-49
2021/10/08 11:52:37;;;;;;;;;;;;;;;22.35;50.75;103081.34;5069361;28;20326;-49
2021/10/08 11:55:05;;;;;;;;;;;;;;;22.47;50.14;103078.66;5070254;28;20338;-58
2021/10/08 11:57:50;;;;;;;;;;;;;;;22.18;49.48;103076.47;5074904;28;20336;-58
2021/10/08 12:00:17;;;;;;;;;;;;;;;22.38;48.94;103073.06;5076146;28;19932;-57
2021/10/08 12:03:07;;;;;;;;;;;;;;;22.76;48.84;103071.75;5076205;28;19978;-58
2021/10/08 12:05:52;;;;;;;;;;;;;;;22.72;47.71;103069.47;5106487;28;19924;-59
2021/10/08 12:08:23;;;;;;;;;;;;;;;23.20;47.60;103060.16;5073534;28;19924;-58
2021/10/08 12:10:51;;;;;;;;;;;;;;;23.25;46.72;103060.63;5075870;28;19947;-59
2021/10/08 12:13:19;;;;;;;;;;;;;;;23.31;46.78;103053.88;5075918;28;20011;-58
2021/10/08 12:15:45;;;;;;;;;;;;;;;23.41;45.18;103055.63;5073777;28;19924;-58
2021/10/08 12:18:18;;;;;;;;;;;;;;;23.89;44.41;103048.84;5105885;28;19932;-59
2021/10/08 12:20:44;;;;;;;;;;;;;;;23.47;44.57;103048.88;5075772;28;19925;-57
2021/10/08 12:23:14;;;;;;;;;;;;;;;23.91;44.43;103041.47;5108265;28;20350;-57
2021/10/08 12:25:41;;;;;;;;;;;;;;;23.92;43.57;103045.03;5106353;28;19931;-59
2021/10/08 12:28:08;;;;;;;;;;;;;;;23.99;43.36;103043.50;5104224;28;19924;-57
2021/10/08 12:30:50;;;;;;;;;;;;;;;23.73;42.21;103046.63;5074287;28;20449;-58
2021/10/08 12:33:24;;;;;;;;;;;;;;;23.49;42.30;103046.06;5075468;28;19947;-50
2021/10/08 12:36:14;;;;;;;;;;;;;;;22.78;43.46;103053.72;5071717;28;20408;-52
2021/10/08 12:38:59;;;;;;;;;;;;;;;23.31;42.95;103040.44;5074851;28;20386;-49
2021/10/08 12:41:38;;;;;;;;;;;;;;;23.23;43.60;103047.31;5075445;28;20387;-51
2021/10/08 12:44:13;;;;;;;;;;;;;;;23.54;42.30;103038.47;5074060;28;19931;-49